sensor_id;sensor_type;location;lat;lon;timestamp;P1;durP1;ratioP1;P2;durP2;ratioP2
49221;SDS011;35047;37.588;-122.048;2023-02-03T00:02:04;13.80;;;3.08;;
49221;SDS011;35047;37.588;-122.048;2023-02-03T00:04:31;6.90;;;3.03;;
49221;SDS011;35047;37.588;-122.048;2023-02-03T00:06:58;5.20;;;3.00;;
49221;SDS011;35047;37.588;-122.048;2023-02-03T00:09:26;4.13;;;2.75;;
49221;SDS011;35047;37.588;-122.048;2023-02-03T00:11:52;4.13;;;2.70;;
49221;SDS011;35047;37.588;-122.048;2023-02-03T00:14:20;4.80;;;1.98;;
49221;SDS011;35047;37.588;-122.048;2023-02-03T00:16:46;5.97;;;2.88;;
49221;SDS011;35047;37.588;-122.048;2023-02-03T00:19:13;2.58;;;1.92;;
49221;SDS011;35047;37.588;-122.048;2023-02-03T00:21:40;6.82;;;3.15;;
49221;SDS011;35047;37.588;-122.048;2023-02-03T00:24:07;5.55;;;3.33;;
49221;SDS011;35047;37.588;-122.048;2023-02-03T00:26:33;4.07;;;2.27;;
49221;SDS011;35047;37.588;-122.048;2023-02-03T00:29:06;4.00;;;2.40;;
49221;SDS011;35047;37.588;-122.048;2023-02-03T00:31:34;5.07;;;3.05;;
49221;SDS011;35047;37.588;-122.048;2023-02-03T00:34:01;5.43;;;3.50;;
49221;SDS011;35047;37.588;-122.048;2023-02-03T00:36:27;3.17;;;2.10;;
49221;SDS011;35047;37.588;-122.048;2023-02-03T00:41:21;4.43;;;2.92;;
49221;SDS011;35047;37.588;-122.048;2023-02-03T00:43:49;5.35;;;3.08;;
49221;SDS011;35047;37.588;-122.048;2023-02-03T00:46:15;5.37;;;2.97;;
49221;SDS011;35047;37.588;-122.048;2023-02-03T00:51:09;5.05;;;3.03;;
49221;SDS011;35047;37.588;-122.048;2023-02-03T00:53:36;4.57;;;2.28;;
49221;SDS011;35047;37.588;-122.048;2023-02-03T00:56:03;2.67;;;1.33;;
49221;SDS011;35047;37.588;-122.048;2023-02-03T00:58:39;4.22;;;2.67;;
49221;SDS011;35047;37.588;-122.048;2023-02-03T01:01:06;3.45;;;2.15;;
49221;SDS011;35047;37.588;-122.048;2023-02-03T01:03:35;6.22;;;2.97;;
49221;SDS011;35047;37.588;-122.048;2023-02-03T01:06:13;2.20;;;1.38;;
49221;SDS011;35047;37.588;-122.048;2023-02-03T01:08:41;3.22;;;2.13;;
49221;SDS011;35047;37.588;-122.048;2023-02-03T01:11:09;8.80;;;2.28;;
49221;SDS011;35047;37.588;-122.048;2023-02-03T01:13:39;6.68;;;2.75;;
49221;SDS011;35047;37.588;-122.048;2023-02-03T01:16:09;2.33;;;1.70;;
49221;SDS011;35047;37.588;-122.048;2023-02-03T01:18:39;4.80;;;2.55;;
49221;SDS011;35047;37.588;-122.048;2023-02-03T01:23:35;2.58;;;1.42;;
49221;SDS011;35047;37.588;-122.048;2023-02-03T01:28:30;2.47;;;1.90;;
49221;SDS011;35047;37.588;-122.048;2023-02-03T01:30:57;3.17;;;1.85;;
49221;SDS011;35047;37.588;-122.048;2023-02-03T01:33:38;2.78;;;1.83;;
49221;SDS011;35047;37.588;-122.048;2023-02-03T01:36:10;4.63;;;1.63;;
49221;SDS011;35047;37.588;-122.048;2023-02-03T01:38:38;6.75;;;1.83;;
49221;SDS011;35047;37.588;-122.048;2023-02-03T01:41:08;3.93;;;2.30;;
49221;SDS011;35047;37.588;-122.048;2023-02-03T01:43:38;10.85;;;2.95;;
49221;SDS011;35047;37.588;-122.048;2023-02-03T01:51:39;2.97;;;2.28;;
49221;SDS011;35047;37.588;-122.048;2023-02-03T01:54:08;2.97;;;1.77;;
49221;SDS011;35047;37.588;-122.048;2023-02-03T01:56:42;3.33;;;1.55;;
49221;SDS011;35047;37.588;-122.048;2023-02-03T01:59:12;4.57;;;1.65;;
49221;SDS011;35047;37.588;-122.048;2023-02-03T02:01:42;2.05;;;1.30;;
49221;SDS011;35047;37.588;-122.048;2023-02-03T02:04:10;2.58;;;1.20;;
49221;SDS011;35047;37.588;-122.048;2023-02-03T02:06:37;2.78;;;1.35;;
49221;SDS011;35047;37.588;-122.048;2023-02-03T02:09:04;2.42;;;1.15;;
49221;SDS011;35047;37.588;-122.048;2023-02-03T02:11:31;11.70;;;1.27;;
49221;SDS011;35047;37.588;-122.048;2023-02-03T02:13:59;3.92;;;1.60;;
49221;SDS011;35047;37.588;-122.048;2023-02-03T02:16:43;1.42;;;0.95;;
49221;SDS011;35047;37.588;-122.048;2023-02-03T02:44:18;0.80;;;0.60;;
49221;SDS011;35047;37.588;-122.048;2023-02-03T02:46:56;2.20;;;0.55;;
49221;SDS011;35047;37.588;-122.048;2023-02-03T02:51:59;1.75;;;0.52;;
49221;SDS011;35047;37.588;-122.048;2023-02-03T02:54:30;0.55;;;0.40;;
49221;SDS011;35047;37.588;-122.048;2023-02-03T02:57:00;2.05;;;0.75;;
49221;SDS011;35047;37.588;-122.048;2023-02-03T02:59:29;0.22;;;0.22;;
49221;SDS011;35047;37.588;-122.048;2023-02-03T03:01:56;0.38;;;0.30;;
49221;SDS011;35047;37.588;-122.048;2023-02-03T03:04:25;0.47;;;0.43;;
49221;SDS011;35047;37.588;-122.048;2023-02-03T03:07:03;0.30;;;0.30;;
49221;SDS011;35047;37.588;-122.048;2023-02-03T03:09:39;0.45;;;0.40;;
49221;SDS011;35047;37.588;-122.048;2023-02-03T03:12:12;1.90;;;0.40;;
49221;SDS011;35047;37.588;-122.048;2023-02-03T03:14:54;1.38;;;0.50;;
49221;SDS011;35047;37.588;-122.048;2023-02-03T03:17:28;0.30;;;0.30;;
49221;SDS011;35047;37.588;-122.048;2023-02-03T03:20:00;1.35;;;0.47;;
49221;SDS011;35047;37.588;-122.048;2023-02-03T03:22:32;0.30;;;0.30;;
49221;SDS011;35047;37.588;-122.048;2023-02-03T03:25:04;0.98;;;0.40;;
49221;SDS011;35047;37.588;-122.048;2023-02-03T03:27:37;3.05;;;0.20;;
49221;SDS011;35047;37.588;-122.048;2023-02-03T03:30:09;0.20;;;0.15;;
49221;SDS011;35047;37.588;-122.048;2023-02-03T03:32:39;0.50;;;0.32;;
49221;SDS011;35047;37.588;-122.048;2023-02-03T03:35:06;0.40;;;0.40;;
49221;SDS011;35047;37.588;-122.048;2023-02-03T03:37:35;0.82;;;0.20;;
49221;SDS011;35047;37.588;-122.048;2023-02-03T03:40:10;0.85;;;0.28;;
49221;SDS011;35047;37.588;-122.048;2023-02-03T03:50:26;0.28;;;0.22;;
49221;SDS011;35047;37.588;-122.048;2023-02-03T03:52:58;0.30;;;0.10;;
49221;SDS011;35047;37.588;-122.048;2023-02-03T03:55:28;0.40;;;0.20;;
49221;SDS011;35047;37.588;-122.048;2023-02-03T03:58:06;1.55;;;0.30;;
49221;SDS011;35047;37.588;-122.048;2023-02-03T04:00:40;0.00;;;0.00;;
49221;SDS011;35047;37.588;-122.048;2023-02-03T04:03:13;0.10;;;0.10;;
49221;SDS011;35047;37.588;-122.048;2023-02-03T04:05:50;0.10;;;0.10;;
49221;SDS011;35047;37.588;-122.048;2023-02-03T04:08:17;0.30;;;0.30;;
49221;SDS011;35047;37.588;-122.048;2023-02-03T04:10:44;0.05;;;0.05;;
49221;SDS011;35047;37.588;-122.048;2023-02-03T04:13:12;0.20;;;0.10;;
49221;SDS011;35047;37.588;-122.048;2023-02-03T04:15:41;0.20;;;0.13;;
49221;SDS011;35047;37.588;-122.048;2023-02-03T04:18:08;0.25;;;0.10;;
49221;SDS011;35047;37.588;-122.048;2023-02-03T04:20:38;0.28;;;0.20;;
49221;SDS011;35047;37.588;-122.048;2023-02-03T04:23:06;1.23;;;0.38;;
49221;SDS011;35047;37.588;-122.048;2023-02-03T04:25:34;0.32;;;0.25;;
49221;SDS011;35047;37.588;-122.048;2023-02-03T04:28:01;0.57;;;0.30;;
49221;SDS011;35047;37.588;-122.048;2023-02-03T04:30:28;0.95;;;0.10;;
49221;SDS011;35047;37.588;-122.048;2023-02-03T04:35:23;0.17;;;0.17;;
49221;SDS011;35047;37.588;-122.048;2023-02-03T04:37:51;0.60;;;0.20;;
49221;SDS011;35047;37.588;-122.048;2023-02-03T04:40:19;0.30;;;0.20;;
49221;SDS011;35047;37.588;-122.048;2023-02-03T04:42:45;0.50;;;0.30;;
49221;SDS011;35047;37.588;-122.048;2023-02-03T04:45:12;0.05;;;0.00;;
49221;SDS011;35047;37.588;-122.048;2023-02-03T04:47:41;0.13;;;0.13;;
49221;SDS011;35047;37.588;-122.048;2023-02-03T04:50:07;0.20;;;0.20;;
49221;SDS011;35047;37.588;-122.048;2023-02-03T04:52:35;0.10;;;0.10;;
49221;SDS011;35047;37.588;-122.048;2023-02-03T04:55:01;0.00;;;0.00;;
49221;SDS011;35047;37.588;-122.048;2023-02-03T04:57:28;0.10;;;0.03;;
49221;SDS011;35047;37.588;-122.048;2023-02-03T04:59:55;0.40;;;0.22;;
49221;SDS011;35047;37.588;-122.048;2023-02-03T05:02:22;2.83;;;0.28;;
49221;SDS011;35047;37.588;-122.048;2023-02-03T05:04:48;3.43;;;0.33;;
49221;SDS011;35047;37.588;-122.048;2023-02-03T05:07:15;1.13;;;0.20;;
49221;SDS011;35047;37.588;-122.048;2023-02-03T05:09:42;0.65;;;0.40;;
49221;SDS011;35047;37.588;-122.048;2023-02-03T05:12:09;0.50;;;0.33;;
49221;SDS011;35047;37.588;-122.048;2023-02-03T05:14:36;0.40;;;0.40;;
49221;SDS011;35047;37.588;-122.048;2023-02-03T05:17:03;1.75;;;0.20;;
49221;SDS011;35047;37.588;-122.048;2023-02-03T05:19:32;0.65;;;0.17;;
49221;SDS011;35047;37.588;-122.048;2023-02-03T05:24:26;0.43;;;0.30;;
49221;SDS011;35047;37.588;-122.048;2023-02-03T05:26:53;1.45;;;0.35;;
49221;SDS011;35047;37.588;-122.048;2023-02-03T05:29:20;1.10;;;0.15;;
49221;SDS011;35047;37.588;-122.048;2023-02-03T05:31:48;0.10;;;0.10;;
49221;SDS011;35047;37.588;-122.048;2023-02-03T05:34:15;2.55;;;0.20;;
49221;SDS011;35047;37.588;-122.048;2023-02-03T05:36:42;4.07;;;0.10;;
49221;SDS011;35047;37.588;-122.048;2023-02-03T05:39:09;2.88;;;0.20;;
49221;SDS011;35047;37.588;-122.048;2023-02-03T05:41:36;2.53;;;0.37;;
49221;SDS011;35047;37.588;-122.048;2023-02-03T05:46:47;0.45;;;0.45;;
49221;SDS011;35047;37.588;-122.048;2023-02-03T05:49:15;0.13;;;0.10;;
49221;SDS011;35047;37.588;-122.048;2023-02-03T05:51:44;0.40;;;0.20;;
49221;SDS011;35047;37.588;-122.048;2023-02-03T05:56:37;0.30;;;0.20;;
49221;SDS011;35047;37.588;-122.048;2023-02-03T05:59:04;0.65;;;0.10;;
49221;SDS011;35047;37.588;-122.048;2023-02-03T06:01:31;5.82;;;0.30;;
49221;SDS011;35047;37.588;-122.048;2023-02-03T06:04:00;0.10;;;0.10;;
49221;SDS011;35047;37.588;-122.048;2023-02-03T06:06:28;0.25;;;0.25;;
49221;SDS011;35047;37.588;-122.048;2023-02-03T06:09:00;0.10;;;0.10;;
49221;SDS011;35047;37.588;-122.048;2023-02-03T06:11:29;3.17;;;0.43;;
49221;SDS011;35047;37.588;-122.048;2023-02-03T06:13:57;0.45;;;0.15;;
49221;SDS011;35047;37.588;-122.048;2023-02-03T06:16:25;0.68;;;0.40;;
49221;SDS011;35047;37.588;-122.048;2023-02-03T06:18:53;2.53;;;0.20;;
49221;SDS011;35047;37.588;-122.048;2023-02-03T06:21:25;0.38;;;0.20;;
49221;SDS011;35047;37.588;-122.048;2023-02-03T06:23:53;0.47;;;0.30;;
49221;SDS011;35047;37.588;-122.048;2023-02-03T06:26:20;0.20;;;0.13;;
49221;SDS011;35047;37.588;-122.048;2023-02-03T06:28:47;1.00;;;0.20;;
49221;SDS011;35047;37.588;-122.048;2023-02-03T06:31:14;0.40;;;0.20;;
49221;SDS011;35047;37.588;-122.048;2023-02-03T06:33:41;0.22;;;0.15;;
49221;SDS011;35047;37.588;-122.048;2023-02-03T06:36:07;0.32;;;0.20;;
49221;SDS011;35047;37.588;-122.048;2023-02-03T06:38:35;5.15;;;0.35;;
49221;SDS011;35047;37.588;-122.048;2023-02-03T06:41:02;0.60;;;0.15;;
49221;SDS011;35047;37.588;-122.048;2023-02-03T06:43:29;0.20;;;0.20;;
49221;SDS011;35047;37.588;-122.048;2023-02-03T06:45:56;2.45;;;0.43;;
49221;SDS011;35047;37.588;-122.048;2023-02-03T06:48:26;0.10;;;0.10;;
49221;SDS011;35047;37.588;-122.048;2023-02-03T06:53:20;0.28;;;0.20;;
49221;SDS011;35047;37.588;-122.048;2023-02-03T06:55:47;1.65;;;0.35;;
49221;SDS011;35047;37.588;-122.048;2023-02-03T06:58:15;0.32;;;0.25;;
49221;SDS011;35047;37.588;-122.048;2023-02-03T07:00:42;0.85;;;0.17;;
49221;SDS011;35047;37.588;-122.048;2023-02-03T07:03:08;0.10;;;0.07;;
49221;SDS011;35047;37.588;-122.048;2023-02-03T07:05:35;0.10;;;0.10;;
49221;SDS011;35047;37.588;-122.048;2023-02-03T07:08:02;0.08;;;0.05;;
49221;SDS011;35047;37.588;-122.048;2023-02-03T07:10:31;1.85;;;0.40;;
49221;SDS011;35047;37.588;-122.048;2023-02-03T07:13:02;0.10;;;0.10;;
49221;SDS011;35047;37.588;-122.048;2023-02-03T07:15:31;0.05;;;0.05;;
49221;SDS011;35047;37.588;-122.048;2023-02-03T07:17:59;0.10;;;0.10;;
49221;SDS011;35047;37.588;-122.048;2023-02-03T07:20:26;0.20;;;0.20;;
49221;SDS011;35047;37.588;-122.048;2023-02-03T07:25:22;2.58;;;0.30;;
49221;SDS011;35047;37.588;-122.048;2023-02-03T07:27:49;4.35;;;0.20;;
49221;SDS011;35047;37.588;-122.048;2023-02-03T07:30:16;0.00;;;0.00;;
49221;SDS011;35047;37.588;-122.048;2023-02-03T07:32:51;0.10;;;0.05;;
49221;SDS011;35047;37.588;-122.048;2023-02-03T07:35:18;0.63;;;0.32;;
49221;SDS011;35047;37.588;-122.048;2023-02-03T07:37:46;0.03;;;0.03;;
49221;SDS011;35047;37.588;-122.048;2023-02-03T07:40:13;0.30;;;0.17;;
49221;SDS011;35047;37.588;-122.048;2023-02-03T07:42:43;0.43;;;0.20;;
49221;SDS011;35047;37.588;-122.048;2023-02-03T07:45:12;3.40;;;0.52;;
49221;SDS011;35047;37.588;-122.048;2023-02-03T07:47:41;1.27;;;0.45;;
49221;SDS011;35047;37.588;-122.048;2023-02-03T07:50:09;0.40;;;0.30;;
49221;SDS011;35047;37.588;-122.048;2023-02-03T07:52:37;0.20;;;0.20;;
49221;SDS011;35047;37.588;-122.048;2023-02-03T07:55:04;0.10;;;0.10;;
49221;SDS011;35047;37.588;-122.048;2023-02-03T07:57:31;0.47;;;0.10;;
49221;SDS011;35047;37.588;-122.048;2023-02-03T07:59:57;0.00;;;0.00;;
49221;SDS011;35047;37.588;-122.048;2023-02-03T08:02:26;0.08;;;0.00;;
49221;SDS011;35047;37.588;-122.048;2023-02-03T08:04:52;0.00;;;0.00;;
49221;SDS011;35047;37.588;-122.048;2023-02-03T08:07:22;0.10;;;0.10;;
49221;SDS011;35047;37.588;-122.048;2023-02-03T08:09:49;0.63;;;0.32;;
49221;SDS011;35047;37.588;-122.048;2023-02-03T08:12:16;0.40;;;0.35;;
49221;SDS011;35047;37.588;-122.048;2023-02-03T08:14:42;0.20;;;0.10;;
49221;SDS011;35047;37.588;-122.048;2023-02-03T08:17:09;0.38;;;0.30;;
49221;SDS011;35047;37.588;-122.048;2023-02-03T08:19:36;0.38;;;0.10;;
49221;SDS011;35047;37.588;-122.048;2023-02-03T08:22:02;0.20;;;0.20;;
49221;SDS011;35047;37.588;-122.048;2023-02-03T08:24:29;0.10;;;0.10;;
49221;SDS011;35047;37.588;-122.048;2023-02-03T08:29:23;2.08;;;0.10;;
49221;SDS011;35047;37.588;-122.048;2023-02-03T08:31:51;0.10;;;0.10;;
49221;SDS011;35047;37.588;-122.048;2023-02-03T08:34:19;0.38;;;0.28;;
49221;SDS011;35047;37.588;-122.048;2023-02-03T08:36:46;0.17;;;0.05;;
49221;SDS011;35047;37.588;-122.048;2023-02-03T08:41:41;0.10;;;0.03;;
49221;SDS011;35047;37.588;-122.048;2023-02-03T08:44:08;0.40;;;0.10;;
49221;SDS011;35047;37.588;-122.048;2023-02-03T08:46:35;0.00;;;0.00;;
49221;SDS011;35047;37.588;-122.048;2023-02-03T08:49:07;0.10;;;0.10;;
49221;SDS011;35047;37.588;-122.048;2023-02-03T08:51:35;0.00;;;0.00;;
49221;SDS011;35047;37.588;-122.048;2023-02-03T08:54:02;0.22;;;0.10;;
49221;SDS011;35047;37.588;-122.048;2023-02-03T08:56:30;1.88;;;0.10;;
49221;SDS011;35047;37.588;-122.048;2023-02-03T08:58:58;2.33;;;0.20;;
49221;SDS011;35047;37.588;-122.048;2023-02-03T09:01:25;0.20;;;0.10;;
49221;SDS011;35047;37.588;-122.048;2023-02-03T09:03:52;0.00;;;0.00;;
49221;SDS011;35047;37.588;-122.048;2023-02-03T09:06:19;0.98;;;0.10;;
49221;SDS011;35047;37.588;-122.048;2023-02-03T09:08:47;0.47;;;0.05;;
49221;SDS011;35047;37.588;-122.048;2023-02-03T09:11:15;0.08;;;0.05;;
49221;SDS011;35047;37.588;-122.048;2023-02-03T09:13:43;0.00;;;0.00;;
49221;SDS011;35047;37.588;-122.048;2023-02-03T09:16:14;0.10;;;0.00;;
49221;SDS011;35047;37.588;-122.048;2023-02-03T09:18:43;1.05;;;0.10;;
49221;SDS011;35047;37.588;-122.048;2023-02-03T09:21:11;0.00;;;0.00;;
49221;SDS011;35047;37.588;-122.048;2023-02-03T09:23:43;0.00;;;0.00;;
49221;SDS011;35047;37.588;-122.048;2023-02-03T09:26:10;0.10;;;0.10;;
49221;SDS011;35047;37.588;-122.048;2023-02-03T09:28:39;0.03;;;0.03;;
49221;SDS011;35047;37.588;-122.048;2023-02-03T09:31:07;1.40;;;0.10;;
49221;SDS011;35047;37.588;-122.048;2023-02-03T09:33:39;0.08;;;0.08;;
49221;SDS011;35047;37.588;-122.048;2023-02-03T09:36:06;0.10;;;0.10;;
49221;SDS011;35047;37.588;-122.048;2023-02-03T09:38:34;0.65;;;0.22;;
49221;SDS011;35047;37.588;-122.048;2023-02-03T09:52:19;0.40;;;0.30;;
49221;SDS011;35047;37.588;-122.048;2023-02-03T09:57:31;0.40;;;0.10;;
49221;SDS011;35047;37.588;-122.048;2023-02-03T10:00:27;0.60;;;0.03;;
49221;SDS011;35047;37.588;-122.048;2023-02-03T10:02:58;0.28;;;0.10;;
49221;SDS011;35047;37.588;-122.048;2023-02-03T10:09:00;0.08;;;0.00;;
49221;SDS011;35047;37.588;-122.048;2023-02-03T10:19:25;0.20;;;0.20;;
49221;SDS011;35047;37.588;-122.048;2023-02-03T10:22:07;0.17;;;0.10;;
49221;SDS011;35047;37.588;-122.048;2023-02-03T10:24:52;0.45;;;0.20;;
49221;SDS011;35047;37.588;-122.048;2023-02-03T10:27:28;0.25;;;0.03;;
49221;SDS011;35047;37.588;-122.048;2023-02-03T10:32:53;0.00;;;0.00;;
49221;SDS011;35047;37.588;-122.048;2023-02-03T10:35:31;0.00;;;0.00;;
49221;SDS011;35047;37.588;-122.048;2023-02-03T10:38:08;0.22;;;0.13;;
49221;SDS011;35047;37.588;-122.048;2023-02-03T10:40:41;0.03;;;0.03;;
49221;SDS011;35047;37.588;-122.048;2023-02-03T10:43:08;0.00;;;0.00;;
49221;SDS011;35047;37.588;-122.048;2023-02-03T10:45:54;0.00;;;0.00;;
49221;SDS011;35047;37.588;-122.048;2023-02-03T10:48:24;0.00;;;0.00;;
49221;SDS011;35047;37.588;-122.048;2023-02-03T10:50:52;0.10;;;0.10;;
49221;SDS011;35047;37.588;-122.048;2023-02-03T10:56:29;0.00;;;0.00;;
49221;SDS011;35047;37.588;-122.048;2023-02-03T10:58:49;0.00;;;0.00;;
49221;SDS011;35047;37.588;-122.048;2023-02-03T11:01:26;0.00;;;0.00;;
49221;SDS011;35047;37.588;-122.048;2023-02-03T11:04:05;3.97;;;0.30;;
49221;SDS011;35047;37.588;-122.048;2023-02-03T11:06:57;0.08;;;0.08;;
49221;SDS011;35047;37.588;-122.048;2023-02-03T11:09:36;0.00;;;0.00;;
49221;SDS011;35047;37.588;-122.048;2023-02-03T11:12:11;0.00;;;0.00;;
49221;SDS011;35047;37.588;-122.048;2023-02-03T11:14:43;0.10;;;0.08;;
49221;SDS011;35047;37.588;-122.048;2023-02-03T11:17:18;0.00;;;0.00;;
49221;SDS011;35047;37.588;-122.048;2023-02-03T11:19:52;0.00;;;0.00;;
49221;SDS011;35047;37.588;-122.048;2023-02-03T11:22:29;0.00;;;0.00;;
49221;SDS011;35047;37.588;-122.048;2023-02-03T11:25:00;0.10;;;0.08;;
49221;SDS011;35047;37.588;-122.048;2023-02-03T11:27:42;0.45;;;0.22;;
49221;SDS011;35047;37.588;-122.048;2023-02-03T11:30:13;0.10;;;0.00;;
49221;SDS011;35047;37.588;-122.048;2023-02-03T11:32:45;0.00;;;0.00;;
49221;SDS011;35047;37.588;-122.048;2023-02-03T11:37:49;0.00;;;0.00;;
49221;SDS011;35047;37.588;-122.048;2023-02-03T11:53:41;0.35;;;0.10;;
49221;SDS011;35047;37.588;-122.048;2023-02-03T12:02:01;0.32;;;0.10;;
49221;SDS011;35047;37.588;-122.048;2023-02-03T12:13:12;0.00;;;0.00;;
49221;SDS011;35047;37.588;-122.048;2023-02-03T12:16:08;0.00;;;0.00;;
49221;SDS011;35047;37.588;-122.048;2023-02-03T12:21:36;1.45;;;0.30;;
49221;SDS011;35047;37.588;-122.048;2023-02-03T12:27:07;0.00;;;0.00;;
49221;SDS011;35047;37.588;-122.048;2023-02-03T12:29:44;0.10;;;0.10;;
49221;SDS011;35047;37.588;-122.048;2023-02-03T12:34:58;0.03;;;0.00;;
49221;SDS011;35047;37.588;-122.048;2023-02-03T12:37:41;0.20;;;0.20;;
49221;SDS011;35047;37.588;-122.048;2023-02-03T12:40:15;0.47;;;0.00;;
49221;SDS011;35047;37.588;-122.048;2023-02-03T12:42:57;0.00;;;0.00;;
49221;SDS011;35047;37.588;-122.048;2023-02-03T12:45:33;0.00;;;0.00;;
49221;SDS011;35047;37.588;-122.048;2023-02-03T12:48:05;5.72;;;0.20;;
49221;SDS011;35047;37.588;-122.048;2023-02-03T12:50:39;1.13;;;0.20;;
49221;SDS011;35047;37.588;-122.048;2023-02-03T12:53:20;0.05;;;0.05;;
49221;SDS011;35047;37.588;-122.048;2023-02-03T12:55:55;0.00;;;0.00;;
49221;SDS011;35047;37.588;-122.048;2023-02-03T13:01:10;0.08;;;0.03;;
49221;SDS011;35047;37.588;-122.048;2023-02-03T13:14:47;0.40;;;0.20;;
49221;SDS011;35047;37.588;-122.048;2023-02-03T13:17:29;0.00;;;0.00;;
49221;SDS011;35047;37.588;-122.048;2023-02-03T13:20:27;0.10;;;0.10;;
49221;SDS011;35047;37.588;-122.048;2023-02-03T13:23:02;0.10;;;0.00;;
49221;SDS011;35047;37.588;-122.048;2023-02-03T13:28:40;0.10;;;0.10;;
49221;SDS011;35047;37.588;-122.048;2023-02-03T13:37:17;0.40;;;0.20;;
49221;SDS011;35047;37.588;-122.048;2023-02-03T13:40:08;0.00;;;0.00;;
49221;SDS011;35047;37.588;-122.048;2023-02-03T13:43:03;3.88;;;0.38;;
49221;SDS011;35047;37.588;-122.048;2023-02-03T13:45:39;0.00;;;0.00;;
49221;SDS011;35047;37.588;-122.048;2023-02-03T13:48:21;0.00;;;0.00;;
49221;SDS011;35047;37.588;-122.048;2023-02-03T13:56:33;0.00;;;0.00;;
49221;SDS011;35047;37.588;-122.048;2023-02-03T13:59:05;0.00;;;0.00;;
49221;SDS011;35047;37.588;-122.048;2023-02-03T14:01:38;0.00;;;0.00;;
49221;SDS011;35047;37.588;-122.048;2023-02-03T14:04:07;0.77;;;0.10;;
49221;SDS011;35047;37.588;-122.048;2023-02-03T14:06:57;0.15;;;0.00;;
49221;SDS011;35047;37.588;-122.048;2023-02-03T14:15:28;0.35;;;0.03;;
49221;SDS011;35047;37.588;-122.048;2023-02-03T14:22:55;0.82;;;0.28;;
49221;SDS011;35047;37.588;-122.048;2023-02-03T14:25:51;0.13;;;0.10;;
49221;SDS011;35047;37.588;-122.048;2023-02-03T14:31:09;1.38;;;0.20;;
49221;SDS011;35047;37.588;-122.048;2023-02-03T14:36:57;0.00;;;0.00;;
49221;SDS011;35047;37.588;-122.048;2023-02-03T14:42:00;0.08;;;0.08;;
49221;SDS011;35047;37.588;-122.048;2023-02-03T14:53:53;0.32;;;0.13;;
49221;SDS011;35047;37.588;-122.048;2023-02-03T14:58:48;3.42;;;0.25;;
49221;SDS011;35047;37.588;-122.048;2023-02-03T15:01:23;1.67;;;0.38;;
49221;SDS011;35047;37.588;-122.048;2023-02-03T15:06:43;0.63;;;0.20;;
49221;SDS011;35047;37.588;-122.048;2023-02-03T15:09:24;2.05;;;0.45;;
49221;SDS011;35047;37.588;-122.048;2023-02-03T15:12:01;0.10;;;0.08;;
49221;SDS011;35047;37.588;-122.048;2023-02-03T15:14:41;0.10;;;0.10;;
49221;SDS011;35047;37.588;-122.048;2023-02-03T15:17:19;0.20;;;0.10;;
49221;SDS011;35047;37.588;-122.048;2023-02-03T15:19:48;0.00;;;0.00;;
49221;SDS011;35047;37.588;-122.048;2023-02-03T15:22:24;0.00;;;0.00;;
49221;SDS011;35047;37.588;-122.048;2023-02-03T15:24:57;0.00;;;0.00;;
49221;SDS011;35047;37.588;-122.048;2023-02-03T15:27:29;0.10;;;0.05;;
49221;SDS011;35047;37.588;-122.048;2023-02-03T15:29:58;0.00;;;0.00;;
49221;SDS011;35047;37.588;-122.048;2023-02-03T15:33:04;0.40;;;0.20;;
49221;SDS011;35047;37.588;-122.048;2023-02-03T15:35:33;0.22;;;0.20;;
49221;SDS011;35047;37.588;-122.048;2023-02-03T15:38:15;0.13;;;0.10;;
49221;SDS011;35047;37.588;-122.048;2023-02-03T15:40:52;0.13;;;0.00;;
49221;SDS011;35047;37.588;-122.048;2023-02-03T15:48:32;0.25;;;0.10;;
49221;SDS011;35047;37.588;-122.048;2023-02-03T15:51:26;0.00;;;0.00;;
49221;SDS011;35047;37.588;-122.048;2023-02-03T15:54:01;0.10;;;0.10;;
49221;SDS011;35047;37.588;-122.048;2023-02-03T15:56:39;0.10;;;0.10;;
49221;SDS011;35047;37.588;-122.048;2023-02-03T15:59:20;0.22;;;0.00;;
49221;SDS011;35047;37.588;-122.048;2023-02-03T16:01:48;0.00;;;0.00;;
49221;SDS011;35047;37.588;-122.048;2023-02-03T16:04:15;0.00;;;0.00;;
49221;SDS011;35047;37.588;-122.048;2023-02-03T16:06:44;10.50;;;0.38;;
49221;SDS011;35047;37.588;-122.048;2023-02-03T16:09:30;0.85;;;0.20;;
49221;SDS011;35047;37.588;-122.048;2023-02-03T16:12:03;0.00;;;0.00;;
49221;SDS011;35047;37.588;-122.048;2023-02-03T16:14:32;0.05;;;0.05;;
49221;SDS011;35047;37.588;-122.048;2023-02-03T16:17:00;0.00;;;0.00;;
49221;SDS011;35047;37.588;-122.048;2023-02-03T16:21:58;0.20;;;0.00;;
49221;SDS011;35047;37.588;-122.048;2023-02-03T16:35:57;0.05;;;0.00;;
49221;SDS011;35047;37.588;-122.048;2023-02-03T16:38:48;0.17;;;0.15;;
49221;SDS011;35047;37.588;-122.048;2023-02-03T16:41:35;0.52;;;0.28;;
49221;SDS011;35047;37.588;-122.048;2023-02-03T16:44:21;0.00;;;0.00;;
49221;SDS011;35047;37.588;-122.048;2023-02-03T16:47:27;0.00;;;0.00;;
49221;SDS011;35047;37.588;-122.048;2023-02-03T16:50:20;0.10;;;0.10;;
49221;SDS011;35047;37.588;-122.048;2023-02-03T16:53:11;0.00;;;0.00;;
49221;SDS011;35047;37.588;-122.048;2023-02-03T16:55:42;0.00;;;0.00;;
49221;SDS011;35047;37.588;-122.048;2023-02-03T16:58:09;0.00;;;0.00;;
49221;SDS011;35047;37.588;-122.048;2023-02-03T17:00:37;0.22;;;0.10;;
49221;SDS011;35047;37.588;-122.048;2023-02-03T17:03:07;0.10;;;0.10;;
49221;SDS011;35047;37.588;-122.048;2023-02-03T17:05:38;0.05;;;0.05;;
49221;SDS011;35047;37.588;-122.048;2023-02-03T17:08:06;0.57;;;0.00;;
49221;SDS011;35047;37.588;-122.048;2023-02-03T17:10:33;0.10;;;0.05;;
49221;SDS011;35047;37.588;-122.048;2023-02-03T17:13:02;0.20;;;0.15;;
49221;SDS011;35047;37.588;-122.048;2023-02-03T17:15:30;0.00;;;0.00;;
49221;SDS011;35047;37.588;-122.048;2023-02-03T17:17:59;0.00;;;0.00;;
49221;SDS011;35047;37.588;-122.048;2023-02-03T17:20:27;0.13;;;0.13;;
49221;SDS011;35047;37.588;-122.048;2023-02-03T17:22:53;0.05;;;0.05;;
49221;SDS011;35047;37.588;-122.048;2023-02-03T17:25:20;0.00;;;0.00;;
49221;SDS011;35047;37.588;-122.048;2023-02-03T17:27:48;0.00;;;0.00;;
49221;SDS011;35047;37.588;-122.048;2023-02-03T17:30:15;5.57;;;0.00;;
49221;SDS011;35047;37.588;-122.048;2023-02-03T17:32:41;0.15;;;0.10;;
49221;SDS011;35047;37.588;-122.048;2023-02-03T17:35:08;0.00;;;0.00;;
49221;SDS011;35047;37.588;-122.048;2023-02-03T17:37:36;0.00;;;0.00;;
49221;SDS011;35047;37.588;-122.048;2023-02-03T17:40:03;0.00;;;0.00;;
49221;SDS011;35047;37.588;-122.048;2023-02-03T17:42:30;0.05;;;0.00;;
49221;SDS011;35047;37.588;-122.048;2023-02-03T17:44:57;0.00;;;0.00;;
49221;SDS011;35047;37.588;-122.048;2023-02-03T17:47:26;0.10;;;0.00;;
49221;SDS011;35047;37.588;-122.048;2023-02-03T17:49:52;0.10;;;0.08;;
49221;SDS011;35047;37.588;-122.048;2023-02-03T17:52:20;4.57;;;0.00;;
49221;SDS011;35047;37.588;-122.048;2023-02-03T17:54:47;0.10;;;0.10;;
49221;SDS011;35047;37.588;-122.048;2023-02-03T17:57:14;0.55;;;0.05;;
49221;SDS011;35047;37.588;-122.048;2023-02-03T17:59:42;0.75;;;0.28;;
49221;SDS011;35047;37.588;-122.048;2023-02-03T18:02:08;0.10;;;0.10;;
49221;SDS011;35047;37.588;-122.048;2023-02-03T18:04:36;0.03;;;0.00;;
49221;SDS011;35047;37.588;-122.048;2023-02-03T18:07:02;0.00;;;0.00;;
49221;SDS011;35047;37.588;-122.048;2023-02-03T18:11:57;0.00;;;0.00;;
49221;SDS011;35047;37.588;-122.048;2023-02-03T18:14:23;1.88;;;0.00;;
49221;SDS011;35047;37.588;-122.048;2023-02-03T18:16:50;0.10;;;0.10;;